Terminal Aerodrome Forecast
Issued by NWS Jackson, KY

Home | Current Version | Previous Version | Text Only | Print | Product List | Glossary On
Versions: 1 2 3 4 5 6 7 8 9 10 11 12 13 14 15 16 17 18 19 20 21 22
024
FTUS43 KJKL 251139
TAFJKL
TAF
KJKL 251139Z 2512/2612 VRB06KT 6SM BR VCSH SCT005 BKN045
     FM251300 27011KT P6SM VCSH BKN030
     FM251700 27013KT P6SM VCSH BKN040
     FM252300 28010KT P6SM BKN060
     FM260500 27007KT P6SM SCT050=

USA.gov is the U.S. government's official web portal to all federal, state and local government web resources and services.